Time;durP1;ratioP1;P1;durP2;ratioP2;P2;SDS_P1;SDS_P2;PMS_P1;PMS_P2;Temp;Humidity;BMP_temperature;BMP_pressure;BME280_temperature;BME280_humidity;BME280_pressure;Samples;Min_cycle;Max_cycle;Signal;HPM_P1;HPM_P2
2021/11/20 00:00:19;;;;;;;;;;;;;;;;;;;;;
2021/11/20 00:03:21;;;;;;;32.53;18.73;;;11.00;98.30;;;;;;5023091;28;20418;-78
2021/11/20 00:06:16;;;;;;;42.03;23.90;;;11.00;98.20;;;;;;5014547;28;20450;-77
2021/11/20 00:08:57;;;;;;;37.73;20.13;;;11.00;98.20;;;;;;4999907;28;20530;-76
2021/11/20 00:12:30;;;;;;;33.57;19.77;;;11.00;98.20;;;;;;4989191;28;20426;-78
2021/11/20 00:15:21;;;;;;;32.33;20.23;;;11.00;98.30;;;;;;4995633;28;20422;-77
2021/11/20 00:19:01;;;;;;;39.60;21.67;;;11.00;98.30;;;;;;4998427;28;20736;-77
2021/11/20 00:22:37;;;;;;;32.77;20.53;;;11.00;98.40;;;;;;4977280;28;20410;-77
2021/11/20 00:25:36;;;;;;;38.20;21.27;;;11.00;98.40;;;;;;4977098;28;20428;-77
2021/11/20 00:28:41;;;;;;;41.77;23.00;;;11.00;98.50;;;;;;4962719;28;20521;-78
2021/11/20 00:31:48;;;;;;;41.17;23.50;;;11.00;98.50;;;;;;4981439;28;20415;-76
2021/11/20 00:34:34;;;;;;;37.70;20.40;;;11.00;98.50;;;;;;4977006;28;20469;-75
2021/11/20 00:37:26;;;;;;;39.73;23.47;;;11.00;98.60;;;;;;4982655;28;20421;-75
2021/11/20 00:40:10;;;;;;;48.70;28.63;;;11.00;98.60;;;;;;4982053;28;20732;-77
2021/11/20 00:42:36;;;;;;;36.63;21.50;;;11.00;98.70;;;;;;4994929;28;20987;-76
2021/11/20 00:45:03;;;;;;;36.87;22.67;;;11.00;98.70;;;;;;4995757;28;20579;-73
2021/11/20 00:47:28;;;;;;;39.83;23.23;;;11.00;98.70;;;;;;5013460;28;20257;-74
2021/11/20 00:49:57;;;;;;;41.50;23.47;;;11.00;98.70;;;;;;4995729;28;20469;-73
2021/11/20 00:52:24;;;;;;;39.47;21.77;;;11.00;98.80;;;;;;5013234;28;20187;-74
2021/11/20 00:54:50;;;;;;;34.63;20.90;;;11.00;98.70;;;;;;4995622;28;20421;-74
2021/11/20 00:57:17;;;;;;;42.60;23.17;;;11.00;98.70;;;;;;4995728;28;20955;-75
2021/11/20 00:59:42;;;;;;;42.83;22.07;;;11.00;98.80;;;;;;5013322;28;20218;-75
2021/11/20 01:02:09;;;;;;;38.00;21.20;;;11.00;98.80;;;;;;5012481;28;20444;-74
2021/11/20 01:04:36;;;;;;;41.20;24.80;;;11.00;98.80;;;;;;4995768;28;20590;-74
2021/11/20 01:07:03;;;;;;;37.50;22.43;;;11.00;98.80;;;;;;5013168;28;20406;-73
2021/11/20 01:09:33;;;;;;;39.93;22.13;;;11.00;98.80;;;;;;5012640;28;20516;-73
2021/11/20 01:12:14;;;;;;;40.87;22.37;;;11.00;98.80;;;;;;4994526;28;20754;-74
2021/11/20 01:14:43;;;;;;;33.97;20.40;;;11.00;98.80;;;;;;4994832;28;20422;-74
2021/11/20 01:17:13;;;;;;;37.87;21.73;;;11.00;98.80;;;;;;4995062;28;20815;-74
2021/11/20 01:19:39;;;;;;;39.30;22.27;;;11.00;98.90;;;;;;4994699;28;20489;-73
2021/11/20 01:22:09;;;;;;;39.20;22.53;;;10.90;98.80;;;;;;4994774;28;20461;-74
2021/11/20 01:24:56;;;;;;;39.43;21.17;;;10.90;98.80;;;;;;5014140;28;20417;-74
2021/11/20 01:27:32;;;;;;;45.30;23.53;;;11.00;98.90;;;;;;4996510;28;20831;-74
2021/11/20 01:30:19;;;;;;;38.53;22.10;;;11.00;98.80;;;;;;5018778;28;20418;-74
2021/11/20 01:32:47;;;;;;;37.73;20.77;;;11.00;98.80;;;;;;5019726;28;20405;-74
2021/11/20 01:35:14;;;;;;;44.10;23.37;;;10.90;98.70;;;;;;4997330;28;20425;-74
2021/11/20 01:37:49;;;;;;;44.57;23.10;;;10.90;98.70;;;;;;4984448;28;20920;-73
2021/11/20 01:40:20;;;;;;;36.57;21.93;;;10.90;98.70;;;;;;4998139;28;20808;-74
2021/11/20 01:42:45;;;;;;;40.20;22.80;;;10.90;98.70;;;;;;4996122;28;20406;-73
2021/11/20 01:45:46;;;;;;;44.30;22.80;;;10.90;98.70;;;;;;4999310;28;20432;-74
2021/11/20 01:48:31;;;;;;;39.13;22.50;;;10.90;98.70;;;;;;4961687;28;20430;-74
2021/11/20 01:51:14;;;;;;;37.87;21.10;;;10.90;98.60;;;;;;4994458;28;20468;-74
2021/11/20 01:54:01;;;;;;;41.20;21.37;;;10.90;98.60;;;;;;4994322;28;20409;-74
2021/11/20 01:56:39;;;;;;;42.83;22.27;;;10.90;98.60;;;;;;4978286;28;20516;-73
2021/11/20 01:59:15;;;;;;;41.30;22.57;;;10.90;98.60;;;;;;4978093;28;20453;-74
2021/11/20 02:02:22;;;;;;;37.77;21.27;;;10.90;98.60;;;;;;5013175;28;20445;-74
2021/11/20 02:05:13;;;;;;;43.43;23.33;;;10.90;98.60;;;;;;4994619;28;20426;-73
2021/11/20 02:08:13;;;;;;;44.00;22.40;;;10.90;98.60;;;;;;4993331;28;20434;-73
2021/11/20 02:10:45;;;;;;;41.30;20.37;;;10.90;98.60;;;;;;4993919;28;20577;-74
2021/11/20 02:13:15;;;;;;;39.57;22.50;;;10.90;98.50;;;;;;5011729;28;20742;-73
2021/11/20 02:15:46;;;;;;;41.20;20.47;;;10.90;98.50;;;;;;4994033;28;20502;-73
2021/11/20 02:18:17;;;;;;;38.50;22.10;;;10.90;98.50;;;;;;4994100;28;20430;-73
2021/11/20 02:21:05;;;;;;;41.30;21.60;;;10.90;98.50;;;;;;4993357;28;20418;-73
2021/11/20 02:23:40;;;;;;;40.43;20.47;;;10.90;98.50;;;;;;4992945;28;20414;-74
2021/11/20 02:26:07;;;;;;;42.90;20.70;;;10.90;98.50;;;;;;4993511;28;20942;-75
2021/11/20 02:28:44;;;;;;;38.97;20.03;;;10.90;98.50;;;;;;4993817;28;20436;-73
2021/11/20 02:31:33;;;;;;;38.97;20.90;;;10.90;98.40;;;;;;5010696;28;20428;-74
2021/11/20 02:33:59;;;;;;;40.03;22.67;;;10.90;98.40;;;;;;4993499;28;20938;-73
2021/11/20 02:36:25;;;;;;;44.33;22.67;;;10.90;98.30;;;;;;4993325;28;20406;-73
2021/11/20 02:38:59;;;;;;;38.50;19.87;;;10.90;98.30;;;;;;4978018;28;20302;-74
2021/11/20 02:41:26;;;;;;;38.83;20.50;;;10.90;98.20;;;;;;4993281;28;20428;-73
2021/11/20 02:43:54;;;;;;;44.10;21.27;;;10.90;98.20;;;;;;5005791;28;20437;-74
2021/11/20 02:46:26;;;;;;;42.10;21.87;;;10.90;98.20;;;;;;4989594;28;20827;-74
2021/11/20 02:48:53;;;;;;;40.57;21.50;;;10.90;98.20;;;;;;4978078;28;20438;-74
2021/11/20 02:51:29;;;;;;;40.70;22.07;;;10.90;98.20;;;;;;4993432;28;20739;-74
2021/11/20 02:54:22;;;;;;;39.97;22.23;;;10.90;98.30;;;;;;4992809;28;20183;-74
2021/11/20 02:57:08;;;;;;;42.73;20.40;;;10.90;98.20;;;;;;4993069;28;20421;-73
2021/11/20 02:59:35;;;;;;;39.10;20.90;;;10.90;98.20;;;;;;4993016;28;20488;-74
2021/11/20 03:02:03;;;;;;;42.70;21.30;;;10.90;98.20;;;;;;4992261;28;20441;-74
2021/11/20 03:04:29;;;;;;;43.03;21.17;;;10.90;98.20;;;;;;4993418;28;20924;-73
2021/11/20 03:06:57;;;;;;;42.57;21.83;;;10.90;98.20;;;;;;5010671;28;20436;-74
2021/11/20 03:09:25;;;;;;;41.40;21.40;;;10.90;98.20;;;;;;4992823;28;20450;-74
2021/11/20 03:11:55;;;;;;;40.60;20.60;;;10.90;98.10;;;;;;4976775;28;20859;-74
2021/11/20 03:14:21;;;;;;;38.67;18.00;;;10.90;98.10;;;;;;5010533;28;20455;-73
2021/11/20 03:16:54;;;;;;;44.23;22.00;;;10.90;98.10;;;;;;4992868;28;20479;-73
2021/11/20 03:19:23;;;;;;;35.90;21.10;;;10.90;98.10;;;;;;4992115;28;20503;-73
2021/11/20 03:22:02;;;;;;;41.03;22.00;;;10.90;98.00;;;;;;4991901;28;20406;-73
2021/11/20 03:24:29;;;;;;;35.77;19.47;;;10.90;97.90;;;;;;4993003;28;20468;-73
2021/11/20 03:26:57;;;;;;;39.90;19.50;;;10.90;97.90;;;;;;4992795;28;20446;-73
2021/11/20 03:29:25;;;;;;;39.80;21.50;;;10.90;97.80;;;;;;4992847;28;20468;-74
2021/11/20 03:31:54;;;;;;;41.37;20.70;;;10.90;97.80;;;;;;4991979;28;20864;-74
2021/11/20 03:34:25;;;;;;;39.57;21.20;;;10.90;97.80;;;;;;5010306;28;20929;-73
2021/11/20 03:36:52;;;;;;;46.20;21.43;;;10.90;97.70;;;;;;4992046;28;20410;-74
2021/11/20 03:39:24;;;;;;;37.43;20.20;;;10.90;97.70;;;;;;4992660;28;20549;-75
2021/11/20 03:41:51;;;;;;;40.07;18.63;;;10.90;97.70;;;;;;4990343;28;20509;-74
2021/11/20 03:44:18;;;;;;;44.07;20.70;;;10.90;97.70;;;;;;5010551;28;20406;-74
2021/11/20 03:46:45;;;;;;;37.47;19.33;;;10.90;97.60;;;;;;4992786;28;20503;-74
2021/11/20 03:49:13;;;;;;;44.17;22.77;;;10.90;97.70;;;;;;4992518;28;20987;-74
2021/11/20 03:51:39;;;;;;;35.50;19.60;;;10.90;97.60;;;;;;4992313;28;20416;-74
2021/11/20 03:54:06;;;;;;;43.70;22.30;;;10.90;97.60;;;;;;4993101;28;20468;-74
2021/11/20 03:56:33;;;;;;;43.60;20.80;;;10.90;97.60;;;;;;4992515;28;20425;-74
2021/11/20 03:58:59;;;;;;;40.17;21.80;;;10.90;97.60;;;;;;4992316;28;20457;-74
2021/11/20 04:01:27;;;;;;;42.00;20.17;;;10.90;97.60;;;;;;4992023;28;20410;-74
2021/11/20 04:03:53;;;;;;;36.50;20.40;;;10.90;97.50;;;;;;4991876;28;20410;-74
2021/11/20 04:06:19;;;;;;;50.43;21.97;;;11.00;97.60;;;;;;5010261;28;20896;-74
2021/11/20 04:08:55;;;;;;;36.50;19.53;;;10.90;97.50;;;;;;4992025;28;20467;-73
2021/11/20 04:11:29;;;;;;;38.80;21.43;;;10.90;97.40;;;;;;4992747;28;20422;-74
2021/11/20 04:13:56;;;;;;;40.70;21.27;;;10.90;97.40;;;;;;4991589;28;20414;-74
2021/11/20 04:16:24;;;;;;;33.90;18.93;;;10.90;97.30;;;;;;4992504;28;20428;-74
2021/11/20 04:18:52;;;;;;;33.70;18.50;;;10.90;97.30;;;;;;4992191;28;20601;-72
2021/11/20 04:21:19;;;;;;;35.90;18.50;;;10.90;97.20;;;;;;4992308;28;20410;-74
2021/11/20 04:23:47;;;;;;;38.13;20.20;;;10.90;97.20;;;;;;4991672;28;20548;-74
2021/11/20 04:26:14;;;;;;;38.30;17.77;;;10.90;97.20;;;;;;4992448;28;20410;-73
2021/11/20 04:28:41;;;;;;;32.97;17.63;;;10.90;97.10;;;;;;4992339;28;20434;-74
2021/11/20 04:31:16;;;;;;;33.50;17.73;;;10.90;97.00;;;;;;4995541;28;21017;-74
2021/11/20 04:33:43;;;;;;;39.53;20.20;;;10.90;96.90;;;;;;4979047;28;20472;-73
2021/11/20 04:36:11;;;;;;;38.80;19.80;;;10.90;96.80;;;;;;4994479;28;20454;-73
2021/11/20 04:38:39;;;;;;;31.00;18.57;;;10.90;97.20;;;;;;4995516;28;20457;-73
2021/11/20 04:41:06;;;;;;;33.87;18.10;;;10.90;96.80;;;;;;4996175;28;20421;-73
2021/11/20 04:43:34;;;;;;;34.97;17.47;;;10.90;97.10;;;;;;4995020;28;20453;-74
2021/11/20 04:46:01;;;;;;;34.60;18.90;;;10.90;96.60;;;;;;4996359;28;20422;-74
2021/11/20 04:48:27;;;;;;;38.53;18.57;;;10.90;96.60;;;;;;4995468;28;20442;-74
2021/11/20 04:51:00;;;;;;;32.17;18.67;;;10.90;96.50;;;;;;4995621;28;20489;-73
2021/11/20 04:53:28;;;;;;;38.30;18.27;;;10.90;96.50;;;;;;4994874;28;20414;-73
2021/11/20 04:55:56;;;;;;;30.40;18.23;;;10.80;96.20;;;;;;4995862;28;20452;-74
2021/11/20 04:58:23;;;;;;;36.70;18.47;;;10.90;96.10;;;;;;4994997;28;20985;-76
2021/11/20 05:00:51;;;;;;;34.80;17.40;;;10.90;96.00;;;;;;4995959;28;20414;-74
2021/11/20 05:03:22;;;;;;;35.63;18.20;;;10.90;95.70;;;;;;4994784;28;20991;-74
2021/11/20 05:05:50;;;;;;;34.40;17.70;;;10.80;96.10;;;;;;4979095;28;20414;-73
2021/11/20 05:08:17;;;;;;;37.77;19.40;;;10.80;95.60;;;;;;5012808;28;20422;-73
2021/11/20 05:10:45;;;;;;;34.40;17.93;;;10.80;95.50;;;;;;4995123;28;20414;-74
2021/11/20 05:13:11;;;;;;;38.57;19.70;;;10.80;95.20;;;;;;4978364;28;20499;-74
2021/11/20 05:15:41;;;;;;;36.07;18.23;;;10.80;95.00;;;;;;4995292;28;20668;-73
2021/11/20 05:18:08;;;;;;;32.43;16.63;;;10.80;95.10;;;;;;4962700;28;20485;-74
2021/11/20 05:20:59;;;;;;;28.07;16.87;;;10.80;95.10;;;;;;5012641;28;20414;-74
2021/11/20 05:23:25;;;;;;;28.97;17.00;;;10.80;95.00;;;;;;4994473;28;20939;-73
2021/11/20 05:25:51;;;;;;;37.97;16.40;;;10.80;95.10;;;;;;4978938;28;20475;-73
2021/11/20 05:28:17;;;;;;;30.30;18.00;;;10.80;95.10;;;;;;4994762;28;20529;-73
2021/11/20 05:30:45;;;;;;;31.53;17.70;;;10.80;94.90;;;;;;4995166;28;20399;-75
2021/11/20 05:33:14;;;;;;;29.27;15.70;;;10.80;94.80;;;;;;4994781;28;20488;-74
2021/11/20 05:35:40;;;;;;;30.17;16.87;;;10.80;94.70;;;;;;4995198;28;20414;-74
2021/11/20 05:38:07;;;;;;;33.80;16.87;;;10.80;94.60;;;;;;5012135;28;20838;-74
2021/11/20 05:40:37;;;;;;;29.60;16.47;;;10.80;94.30;;;;;;4994948;28;20181;-75
2021/11/20 05:43:08;;;;;;;30.27;16.50;;;10.80;94.30;;;;;;4972677;28;20940;-74
2021/11/20 05:45:36;;;;;;;35.87;19.20;;;10.80;94.10;;;;;;4975580;28;20485;-76
2021/11/20 05:48:03;;;;;;;33.83;18.17;;;10.80;94.00;;;;;;4975084;28;20438;-75
2021/11/20 05:50:32;;;;;;;28.70;15.83;;;10.80;94.10;;;;;;4975244;28;20473;-73
2021/11/20 05:52:58;;;;;;;25.77;14.97;;;10.80;94.10;;;;;;4991086;28;20407;-74
2021/11/20 05:55:28;;;;;;;32.30;17.87;;;10.80;94.00;;;;;;4989484;28;20410;-74
2021/11/20 05:57:54;;;;;;;28.30;17.30;;;10.80;93.90;;;;;;4993474;28;20446;-75
2021/11/20 06:00:29;;;;;;;30.63;17.00;;;10.80;94.20;;;;;;4994257;28;20453;-74
2021/11/20 06:02:58;;;;;;;25.33;14.90;;;10.80;93.80;;;;;;4993938;28;20408;-74
2021/11/20 06:05:39;;;;;;;31.67;17.70;;;10.80;93.70;;;;;;4995278;28;20422;-74
2021/11/20 06:08:06;;;;;;;31.30;16.87;;;10.90;93.70;;;;;;5011613;28;20557;-76
2021/11/20 06:10:32;;;;;;;32.00;16.67;;;10.90;93.60;;;;;;4994587;28;20429;-73
2021/11/20 06:12:59;;;;;;;30.30;16.63;;;10.90;93.50;;;;;;4993733;28;20496;-77
2021/11/20 06:15:28;;;;;;;28.87;16.30;;;10.90;93.40;;;;;;4994203;28;20445;-74
2021/11/20 06:17:55;;;;;;;26.90;16.80;;;10.90;93.40;;;;;;4994177;28;20815;-74
2021/11/20 06:20:21;;;;;;;27.13;16.07;;;10.90;93.30;;;;;;5011737;28;20469;-74
2021/11/20 06:22:48;;;;;;;31.30;16.97;;;10.90;93.30;;;;;;4993479;28;20182;-74
2021/11/20 06:25:14;;;;;;;29.93;15.90;;;10.90;93.10;;;;;;4994176;28;20438;-75
2021/11/20 06:27:41;;;;;;;29.10;15.80;;;10.90;93.10;;;;;;4993869;28;20445;-73
2021/11/20 06:30:13;;;;;;;31.30;17.10;;;10.90;92.90;;;;;;4993378;28;20414;-73
2021/11/20 06:32:40;;;;;;;29.57;16.27;;;10.90;92.90;;;;;;4993058;28;20461;-74
2021/11/20 06:35:34;;;;;;;29.50;15.43;;;10.90;93.30;;;;;;5009961;28;20504;-73
2021/11/20 06:38:15;;;;;;;32.80;17.80;;;10.90;92.90;;;;;;4993920;28;20450;-74
2021/11/20 06:40:46;;;;;;;28.33;16.10;;;10.90;92.90;;;;;;4993718;28;20436;-74
2021/11/20 06:43:15;;;;;;;29.23;16.67;;;10.90;92.80;;;;;;4993442;28;20481;-73
2021/11/20 06:45:48;;;;;;;33.30;18.17;;;10.90;92.70;;;;;;4993461;28;20490;-73
2021/11/20 06:48:16;;;;;;;28.13;15.57;;;10.90;92.70;;;;;;4993528;28;20548;-75
2021/11/20 06:50:47;;;;;;;27.53;16.47;;;10.90;92.60;;;;;;4978405;28;20565;-75
2021/11/20 06:53:32;;;;;;;28.87;15.50;;;10.90;92.50;;;;;;5010735;28;21043;-73
2021/11/20 06:56:28;;;;;;;25.10;14.63;;;10.90;92.50;;;;;;5009008;28;20421;-74
2021/11/20 07:01:59;;;;;;;30.50;17.30;;;10.90;92.40;;;;;;4993441;28;20861;-74
2021/11/20 07:04:27;;;;;;;28.30;15.30;;;10.90;92.30;;;;;;4977656;28;20425;-73
2021/11/20 07:06:59;;;;;;;35.00;18.20;;;10.80;92.30;;;;;;4993387;28;20413;-74
2021/11/20 07:09:25;;;;;;;27.17;15.43;;;10.90;92.30;;;;;;5011004;28;20402;-76
2021/11/20 07:11:51;;;;;;;25.07;15.60;;;10.90;92.20;;;;;;5010285;28;20449;-73
2021/11/20 07:14:18;;;;;;;27.27;15.53;;;10.90;92.20;;;;;;4993531;28;20637;-74
2021/11/20 07:16:44;;;;;;;27.97;16.60;;;10.90;92.10;;;;;;4993402;28;20806;-74
2021/11/20 07:19:12;;;;;;;28.43;15.60;;;10.90;92.10;;;;;;4977376;28;21011;-73
2021/11/20 07:22:00;;;;;;;28.87;15.20;;;10.90;92.10;;;;;;4995791;28;20480;-74
2021/11/20 07:24:47;;;;;;;31.10;16.67;;;10.90;92.00;;;;;;4993288;28;20453;-74
2021/11/20 07:27:13;;;;;;;29.27;15.80;;;10.90;91.90;;;;;;4993522;28;20931;-74
2021/11/20 07:29:39;;;;;;;28.80;16.13;;;10.90;91.90;;;;;;4993863;28;20410;-73
2021/11/20 07:32:07;;;;;;;25.60;15.53;;;10.90;91.90;;;;;;4993037;28;20493;-74
2021/11/20 07:34:34;;;;;;;30.60;15.10;;;11.00;91.90;;;;;;4994933;28;20422;-74
2021/11/20 07:37:01;;;;;;;28.37;15.80;;;11.00;91.90;;;;;;4997038;28;20583;-75
2021/11/20 07:39:29;;;;;;;26.03;15.07;;;11.00;91.90;;;;;;4998109;28;20274;-74
2021/11/20 07:41:55;;;;;;;25.17;14.87;;;11.00;91.80;;;;;;4998532;28;20835;-73
2021/11/20 07:44:23;;;;;;;31.40;16.77;;;11.00;91.80;;;;;;4993099;28;20418;-74
2021/11/20 07:46:53;;;;;;;29.43;15.83;;;10.90;91.90;;;;;;4992332;28;20410;-74
2021/11/20 07:49:23;;;;;;;27.50;15.93;;;11.00;91.40;;;;;;4992194;28;20438;-74
2021/11/20 07:51:49;;;;;;;26.60;14.93;;;11.00;91.30;;;;;;5008255;28;20429;-75
2021/11/20 07:54:17;;;;;;;29.73;16.17;;;10.90;91.30;;;;;;4992886;28;20501;-75
2021/11/20 07:57:02;;;;;;;31.33;17.90;;;11.00;91.30;;;;;;5010663;28;20783;-74
2021/11/20 07:59:28;;;;;;;26.13;15.80;;;10.90;91.10;;;;;;4992661;28;20508;-74
2021/11/20 08:02:13;;;;;;;29.30;15.77;;;10.90;91.00;;;;;;4992720;28;20454;-85
2021/11/20 08:04:44;;;;;;;22.47;13.80;;;10.90;91.00;;;;;;4992746;28;20476;-79
2021/11/20 08:07:28;;;;;;;29.03;14.80;;;10.90;91.00;;;;;;5015843;28;20433;-78
2021/11/20 08:10:16;;;;;;;26.37;15.80;;;10.90;90.70;;;;;;5016842;28;21038;-79
2021/11/20 08:12:44;;;;;;;26.53;14.60;;;10.90;90.80;;;;;;4996668;28;20956;-78
2021/11/20 08:15:32;;;;;;;28.90;13.60;;;10.90;90.70;;;;;;4982046;28;20490;-78
2021/11/20 08:18:27;;;;;;;26.57;14.53;;;11.00;90.70;;;;;;4997112;28;20991;-80
2021/11/20 08:21:11;;;;;;;26.87;14.70;;;10.90;90.40;;;;;;5011509;28;20446;-78
2021/11/20 08:23:59;;;;;;;24.30;13.43;;;11.00;90.50;;;;;;5015419;28;20453;-78
2021/11/20 08:26:26;;;;;;;27.90;14.83;;;11.00;90.60;;;;;;4999233;28;20509;-78
2021/11/20 08:28:52;;;;;;;24.40;13.60;;;11.00;90.30;;;;;;5000116;28;20544;-78
2021/11/20 08:31:23;;;;;;;26.20;14.57;;;11.00;90.40;;;;;;5001595;28;20746;-78
2021/11/20 08:34:09;;;;;;;29.23;14.47;;;11.00;90.20;;;;;;4993740;28;20449;-79
2021/11/20 08:37:15;;;;;;;29.37;14.53;;;11.00;90.30;;;;;;4964827;28;20781;-79
2021/11/20 08:40:03;;;;;;;23.33;13.93;;;11.10;90.40;;;;;;4979279;28;20514;-78
2021/11/20 08:42:31;;;;;;;31.03;16.13;;;11.10;90.30;;;;;;4982199;28;20428;-79
2021/11/20 08:45:00;;;;;;;33.17;18.30;;;11.10;90.30;;;;;;4971148;28;20555;-76
2021/11/20 08:47:39;;;;;;;29.87;16.10;;;11.20;90.20;;;;;;4997581;28;20529;-76
2021/11/20 08:50:11;;;;;;;31.10;18.07;;;11.30;89.80;;;;;;4996403;28;20454;-76
2021/11/20 08:53:09;;;;;;;24.90;13.70;;;11.30;90.20;;;;;;4995769;28;20419;-78
2021/11/20 08:56:02;;;;;;;30.07;15.13;;;11.40;89.50;;;;;;4967467;28;20419;-78
2021/11/20 08:58:59;;;;;;;29.50;14.83;;;11.40;89.30;;;;;;4965800;28;20466;-76
2021/11/20 09:02:09;;;;;;;23.27;14.37;;;11.50;88.80;;;;;;5001073;28;20418;-76
2021/11/20 09:05:05;;;;;;;30.40;15.43;;;11.50;88.60;;;;;;4981739;28;20417;-77
2021/11/20 09:07:48;;;;;;;30.33;16.03;;;11.50;88.20;;;;;;4995907;28;20434;-77
2021/11/20 09:10:33;;;;;;;31.23;16.53;;;11.60;88.10;;;;;;4996629;28;20417;-77
2021/11/20 09:13:14;;;;;;;25.87;15.40;;;11.60;88.20;;;;;;4996425;28;20908;-77
2021/11/20 09:15:52;;;;;;;24.83;14.33;;;11.70;88.20;;;;;;4981054;28;20468;-76
2021/11/20 09:18:46;;;;;;;31.00;15.43;;;11.70;87.60;;;;;;4997543;28;20465;-78
2021/11/20 09:21:33;;;;;;;26.20;14.77;;;11.70;86.30;;;;;;4997167;28;20463;-78
2021/11/20 09:24:32;;;;;;;53.67;30.93;;;11.60;85.90;;;;;;4989538;28;20418;-76
2021/11/20 09:27:21;;;;;;;45.73;27.87;;;11.60;87.50;;;;;;4998917;28;20935;-77
2021/11/20 09:29:54;;;;;;;33.90;17.50;;;11.70;87.10;;;;;;4979557;28;20441;-76
2021/11/20 09:32:33;;;;;;;25.73;14.77;;;11.80;87.00;;;;;;4979728;28;20956;-77
2021/11/20 09:35:19;;;;;;;25.93;15.10;;;11.80;86.40;;;;;;4996053;28;20919;-80
2021/11/20 09:38:26;;;;;;;25.40;12.87;;;11.80;86.30;;;;;;4957305;28;20810;-76
2021/11/20 09:41:03;;;;;;;30.13;15.90;;;11.80;85.40;;;;;;4979435;28;20803;-77
2021/11/20 09:43:50;;;;;;;23.80;14.50;;;11.70;84.90;;;;;;4979720;28;20919;-76
2021/11/20 09:46:32;;;;;;;25.47;14.70;;;11.70;85.70;;;;;;4979918;28;20444;-77
2021/11/20 09:53:27;;;;;;;30.43;14.80;;;11.70;86.30;;;;;;4913788;29;20422;-76
2021/11/20 09:56:21;;;;;;;22.67;14.30;;;11.70;85.40;;;;;;4899096;29;20419;-76
2021/11/20 09:59:02;;;;;;;21.27;12.80;;;11.70;86.10;;;;;;4988432;28;20828;-77
2021/11/20 10:01:55;;;;;;;24.70;14.90;;;11.70;84.40;;;;;;4979526;28;20796;-77
2021/11/20 10:04:57;;;;;;;25.17;14.20;;;11.60;85.30;;;;;;4994723;28;20908;-77
2021/11/20 10:08:15;;;;;;;22.90;12.70;;;11.70;86.30;;;;;;4978124;28;20517;-76
2021/11/20 10:11:55;;;;;;;20.20;12.80;;;11.70;85.20;;;;;;4921959;28;20421;-76
2021/11/20 10:14:46;;;;;;;31.27;17.47;;;11.70;84.10;;;;;;4900742;29;20516;-76
2021/11/20 10:17:50;;;;;;;31.57;20.07;;;11.70;83.70;;;;;;4979111;28;20409;-76
2021/11/20 10:20:37;;;;;;;22.50;13.60;;;11.60;84.90;;;;;;5013418;28;20449;-75
2021/11/20 10:24:04;;;;;;;26.80;14.57;;;11.70;84.40;;;;;;4994815;28;20402;-76
2021/11/20 10:27:08;;;;;;;24.43;13.70;;;11.70;83.20;;;;;;4929243;29;20518;-75
2021/11/20 10:29:58;;;;;;;22.77;13.57;;;11.60;83.10;;;;;;4929527;29;20473;-76
2021/11/20 10:32:59;;;;;;;23.47;14.63;;;11.60;82.30;;;;;;4989335;28;20414;-76
2021/11/20 10:35:45;;;;;;;23.67;13.83;;;11.60;82.70;;;;;;4982935;28;20409;-76
2021/11/20 10:38:36;;;;;;;28.20;17.00;;;11.60;82.90;;;;;;4979386;28;20443;-77
2021/11/20 10:41:22;;;;;;;22.90;13.57;;;11.60;83.00;;;;;;4995342;28;20453;-76
2021/11/20 10:44:09;;;;;;;18.73;12.50;;;11.60;82.80;;;;;;4994970;28;20407;-77
2021/11/20 10:46:55;;;;;;;20.90;12.93;;;11.60;82.90;;;;;;4994646;28;20888;-77
2021/11/20 10:49:43;;;;;;;22.00;13.90;;;11.60;82.40;;;;;;4995622;28;20562;-77
2021/11/20 10:52:46;;;;;;;22.33;13.83;;;11.60;82.70;;;;;;4978706;28;20401;-77
2021/11/20 10:55:53;;;;;;;18.03;12.20;;;11.60;82.90;;;;;;4995063;28;20414;-76
2021/11/20 10:59:25;;;;;;;21.70;13.43;;;11.60;82.50;;;;;;4916227;29;20543;-75
2021/11/20 11:02:55;;;;;;;26.43;16.00;;;11.70;81.00;;;;;;4966508;28;20426;-75
2021/11/20 11:05:59;;;;;;;26.47;14.57;;;11.70;81.50;;;;;;4998958;28;20453;-77
2021/11/20 11:08:53;;;;;;;23.63;12.90;;;11.80;81.70;;;;;;4996387;28;20915;-76
2021/11/20 11:11:38;;;;;;;24.30;15.13;;;11.80;81.50;;;;;;5012304;28;20934;-77
2021/11/20 11:14:28;;;;;;;22.47;15.13;;;11.80;81.50;;;;;;4994332;28;20417;-76
2021/11/20 11:17:01;;;;;;;18.90;12.73;;;11.80;82.00;;;;;;4994474;28;20872;-77
2021/11/20 11:19:43;;;;;;;19.73;11.43;;;11.90;82.00;;;;;;4994087;28;20471;-76
2021/11/20 11:22:21;;;;;;;35.63;20.97;;;11.90;80.70;;;;;;5011793;28;20475;-77
2021/11/20 11:25:13;;;;;;;19.40;12.87;;;11.90;80.50;;;;;;5011174;28;20421;-76
2021/11/20 11:27:51;;;;;;;24.30;14.60;;;12.00;81.10;;;;;;4994254;28;20434;-77
2021/11/20 11:30:25;;;;;;;22.73;12.97;;;12.00;81.30;;;;;;5012602;28;20464;-77
2021/11/20 11:32:51;;;;;;;24.17;14.07;;;12.00;79.90;;;;;;5012643;28;20476;-74
2021/11/20 11:35:20;;;;;;;22.17;13.40;;;12.10;79.90;;;;;;5014868;28;20402;-76
2021/11/20 11:38:00;;;;;;;21.73;13.60;;;12.10;80.80;;;;;;5012375;28;20470;-77
2021/11/20 11:40:42;;;;;;;28.80;17.43;;;12.20;80.50;;;;;;5010824;28;20808;-77
2021/11/20 11:43:10;;;;;;;21.30;13.83;;;12.20;78.60;;;;;;4993720;28;20437;-76
2021/11/20 11:46:01;;;;;;;23.40;14.60;;;12.20;79.00;;;;;;5011228;28;20855;-77
2021/11/20 11:48:44;;;;;;;20.63;12.60;;;12.20;78.60;;;;;;4983503;28;20469;-77
2021/11/20 11:51:53;;;;;;;23.13;12.23;;;12.20;78.70;;;;;;5011933;28;20468;-77
2021/11/20 11:54:40;;;;;;;19.80;12.93;;;12.20;78.80;;;;;;5011721;28;20410;-77
2021/11/20 11:57:15;;;;;;;18.23;11.80;;;12.20;79.20;;;;;;5012008;28;20418;-76
2021/11/20 12:00:02;;;;;;;21.83;12.17;;;12.20;78.80;;;;;;4994236;28;20508;-77
2021/11/20 12:02:38;;;;;;;23.27;12.10;;;12.10;77.80;;;;;;5011517;28;20452;-77
2021/11/20 12:05:28;;;;;;;35.47;22.37;;;12.10;78.00;;;;;;4978441;28;20401;-78
2021/11/20 12:08:25;;;;;;;24.27;13.53;;;12.10;78.30;;;;;;5011497;28;20421;-77
2021/11/20 12:11:05;;;;;;;22.93;12.97;;;12.20;78.50;;;;;;4980358;28;20433;-77
2021/11/20 12:13:38;;;;;;;24.70;15.00;;;12.20;77.80;;;;;;5011654;28;20412;-77
2021/11/20 12:16:06;;;;;;;22.33;14.20;;;12.20;78.80;;;;;;4995509;28;20453;-78
2021/11/20 12:18:41;;;;;;;18.53;11.33;;;12.20;77.60;;;;;;5011393;28;20483;-77
2021/11/20 12:21:15;;;;;;;20.47;12.30;;;12.20;78.00;;;;;;5011289;28;20430;-76
2021/11/20 12:24:07;;;;;;;19.80;12.23;;;12.20;77.50;;;;;;4993659;28;20425;-76
2021/11/20 12:26:41;;;;;;;17.93;11.50;;;12.30;77.60;;;;;;5011366;28;20793;-77
2021/11/20 12:29:16;;;;;;;22.40;12.73;;;12.30;76.30;;;;;;4994043;28;20471;-76
2021/11/20 12:32:11;;;;;;;21.80;13.87;;;12.20;76.50;;;;;;4993604;28;20480;-77
2021/11/20 12:35:06;;;;;;;21.23;13.13;;;12.10;75.90;;;;;;4945003;28;20434;-77
2021/11/20 12:38:04;;;;;;;50.93;33.70;;;12.10;74.40;;;;;;4977765;28;20448;-78
2021/11/20 12:41:08;;;;;;;19.33;11.40;;;12.00;76.30;;;;;;4977081;28;20457;-77
2021/11/20 12:43:51;;;;;;;20.03;12.20;;;11.90;76.10;;;;;;4976739;28;20417;-77
2021/11/20 12:46:23;;;;;;;18.03;10.93;;;11.90;76.20;;;;;;4977201;28;20749;-77
2021/11/20 12:49:00;;;;;;;21.90;12.40;;;11.90;75.20;;;;;;4977139;28;20434;-77
2021/11/20 12:51:37;;;;;;;20.70;11.80;;;11.90;76.60;;;;;;4979439;28;20920;-77
2021/11/20 12:54:57;;;;;;;38.07;21.30;;;11.90;76.20;;;;;;4998382;28;20408;-77
2021/11/20 12:57:41;;;;;;;19.07;11.43;;;11.80;76.70;;;;;;4980697;28;20445;-77
2021/11/20 13:00:27;;;;;;;23.70;13.07;;;11.80;76.10;;;;;;4980275;28;20992;-77
2021/11/20 13:03:04;;;;;;;18.60;12.27;;;11.80;75.90;;;;;;5013346;28;20472;-77
2021/11/20 13:05:55;;;;;;;20.20;12.73;;;11.90;76.40;;;;;;4997099;28;20937;-78
2021/11/20 13:09:50;;;;;;;22.03;12.67;;;11.90;76.10;;;;;;5014186;28;20465;-78
2021/11/20 13:12:26;;;;;;;19.23;11.10;;;11.90;76.40;;;;;;4996423;28;20950;-76
2021/11/20 13:15:14;;;;;;;19.97;12.40;;;11.80;76.10;;;;;;4976476;28;20423;-78
2021/11/20 13:18:29;;;;;;;23.63;14.70;;;11.80;75.40;;;;;;4994682;28;20484;-77
2021/11/20 13:21:07;;;;;;;20.93;12.50;;;11.80;76.50;;;;;;4914858;29;20446;-77
2021/11/20 13:23:36;;;;;;;25.10;17.77;;;11.80;75.40;;;;;;4934072;29;20459;-77
2021/11/20 13:26:04;;;;;;;25.53;13.60;;;11.70;75.00;;;;;;4983014;28;20426;-77
2021/11/20 13:28:33;;;;;;;23.00;14.10;;;11.60;75.90;;;;;;4996220;28;20438;-77
2021/11/20 13:30:59;;;;;;;20.57;12.10;;;11.60;76.30;;;;;;5014784;28;20414;-77
2021/11/20 13:33:25;;;;;;;20.70;13.13;;;11.70;76.60;;;;;;5014816;28;20493;-77